Aviation Digital Data Service (ADDS)

Output produced by METARs form (1839 UTC 18 June 2019)
found at http://www.aviationweather.gov/metar/data/
 
KABY 181753Z 17004KT 10SM BKN034 BKN048 31/22 A2998 RMK AO2 SLP149 T03110217 10317 20239 58018
KABY 181720Z 1818/1918 18006KT P6SM BKN035 OVC050 
     FM181900 23008KT 5SM -TSRA BKN040CB 
     FM190000 23005KT P6SM BKN250 
     FM190900 21004KT P6SM BKN015 
     FM191500 22006KT P6SM BKN050
       
KAMG 181753Z AUTO 28006KT 10SM FEW070 32/21 A2997 RMK AO2 SLP145 T03220211 10333 20244 58014
KACJ 181815Z AUTO 23006KT 10SM SCT040 SCT046 BKN050 33/21 A2997 RMK AO2 LTG DSNT SW AND W
KAHN 181751Z 16003KT 10SM FEW027 SCT032 BKN075 29/22 A2998 RMK AO2 LTG DSNT N AND NE SLP143 T02890217 10300 20233 58018
KAHN 181734Z 1818/1918 22006KT P6SM -SHRA FEW020 BKN040 
     TEMPO 1820/1824 4SM TSRA OVC025CB 
     FM190100 20005KT P6SM VCSH BKN050 BKN080 
     FM190700 22006KT P6SM BKN015 
     FM191000 24006KT P6SM BKN007 
     FM191400 26007KT P6SM VCSH BKN015
       
KFFC 181753Z AUTO 25004KT 10SM CLR 29/22 A2998 RMK AO2 SLP145 60000 T02940217 10294 20228 58019
KRYY 181750Z 23008KT 10SM BKN020 28/22 A2999 RMK AO2 LTG DSNT E AND NW SLP874 60001 T02780222 10278 20233 58017 $
KRYY 181734Z 1818/1918 22006KT P6SM -SHRA BKN015 
     TEMPO 1820/1824 4SM TSRA OVC025CB 
     FM190100 20005KT P6SM VCSH BKN050 BKN080 
     FM190700 22006KT P6SM BKN015 
     FM191000 24006KT P6SM BKN007 
     FM191400 26007KT P6SM VCSH BKN015
       
KPDK 181753Z 23007KT 10SM FEW060 27/22 A2998 RMK AO2 LTG DSNT E RAE06 SLP136 P0000 60004 T02670222 10272 20222 58017 $
KPDK 181734Z 1818/1918 22006KT P6SM -SHRA FEW015 BKN040 
     TEMPO 1820/1824 4SM TSRA OVC025CB 
     FM190100 20005KT P6SM VCSH BKN050 BKN080 
     FM190700 22006KT P6SM BKN015 
     FM191000 24006KT P6SM BKN007 
     FM191400 26007KT P6SM VCSH BKN015
       
KFTY 181753Z 23006KT 10SM SCT020 28/22 A2997 RMK AO2 LTG DSNT E AND NW SLP139 60013 T02780217 10278 20228 58018
KFTY 181734Z 1818/1918 22004KT P6SM -SHRA FEW015 BKN050 
     TEMPO 1820/1824 4SM TSRA OVC025CB 
     FM190100 20005KT P6SM VCSH BKN050 BKN080 
     FM190700 22006KT P6SM BKN015 
     FM191000 24006KT P6SM BKN007 
     FM191400 26007KT P6SM VCSH BKN015
       
KLZU 181806Z VRB03KT 3SM +TSRA BR SCT018 BKN029 OVC044 23/22 A2999 RMK AO2 P0004
KATL 181811Z 24006KT 9SM -RA FEW020CB BKN030 BKN050 OVC200 27/22 A2998 RMK AO2 LTG DSNT NE CB NE DSNT NE MOV NE TCU DSNT S SHRA VC NE P0000 T02670222
KATL 181734Z 1818/1924 22006KT P6SM -SHRA FEW020 BKN040 
     TEMPO 1820/1824 4SM TSRA OVC025CB 
     FM190100 20005KT P6SM VCSH BKN050 BKN080 
     FM190700 22006KT P6SM BKN015 
     FM191000 24006KT P6SM BKN007 
     FM191400 26007KT P6SM VCSH BKN015 
     FM191800 25008KT P6SM -SHRA SCT035 
     PROB30 1919/1923 4SM TSRA BKN035CB BKN040
       
KCCO 181815Z AUTO 00000KT 10SM SCT028 SCT033 SCT045 30/23 A2998 RMK AO2 LTG DSNT NE AND SW T03010231
KAGS 181753Z VRB03KT 10SM BKN040 32/22 A2995 RMK AO2 SLP141 T03170222 10317 20244 58019
KAGS 181735Z 1818/1918 20006KT P6SM BKN040 
     FM182000 20008KT P6SM VCSH BKN050 
     TEMPO 1821/1901 5SM TSRA BKN030CB 
     FM190200 VRB03KT P6SM VCSH OVC050 
     FM190900 00000KT P6SM OVC050 
     FM191400 24008KT P6SM BKN020
       
KDNL 181753Z AUTO 00000KT 10SM FEW043 BKN050 31/19 A2997 RMK AO2 SLP143 T03060194 10317 20244 58019
KDNL 181735Z 1818/1918 20006KT P6SM BKN040 
     FM182000 19008KT P6SM VCSH BKN050 
     TEMPO 1821/1901 5SM TSRA BKN030CB 
     FM190200 VRB03KT P6SM VCSH OVC050 
     FM190900 VRB03KT P6SM OVC050 
     FM191400 24008KT P6SM BKN020
       
KBGE 181815Z 10SM 33/20 A2995 RMK AO2 PWINO
KBHC 181815Z AUTO 24004KT 10SM BKN075 31/20 A2996 RMK AO2
KDZJ 181835Z AUTO 27003KT 10SM -RA SCT029 BKN036 OVC070 21/19 A3005 RMK AO2 LTG DSNT NE T02060190
KBIJ 181835Z AUTO 22005KT 10SM TS SCT036 SCT050 BKN070 29/21 A2996 RMK AO2 LTG DSNT SW THRU N
KBQK 181835Z AUTO 10009KT 5SM HZ BKN042 BKN049 OVC080 31/23 A2996 RMK AO2 T03060229
KSSI 181753Z AUTO 15011KT 10SM CLR 31/23 A2998 RMK AO2 SLP151 T03060233 10311 20261 58012
KSSI 181738Z 1818/1918 15008KT P6SM VCSH SCT030 BKN250 
     TEMPO 1819/1823 VRB18G28KT 3SM TSRA BKN020CB 
     FM190100 23006KT P6SM VCSH SCT025 BKN100 
     FM190400 24005KT P6SM FEW020 SCT100 BKN200 
     FM191500 25010KT P6SM VCTS BKN040CB
       
K6A1 181835Z AUTO 00000KT 10SM 29/22 A2998 RMK AO2 T02860221
KCXU 181835Z AUTO 22004KT 10SM CLR 32/22 A2996 RMK AO1 T03170216
K18A 181835Z AUTO 00000KT TS 26/25 A2999 RMK AO2 LTG DSNT NW THRU NE T02600246
KCTJ 181835Z AUTO 00000KT 10SM SCT110 25/23 A3001 RMK AO2 LTG DSNT SE AND SW T02500225
KVPC 181830Z AUTO 02004KT 10SM FEW038 26/22 A2997 RMK AO2 LTG DSNT NE T02610217
KCWV 181835Z AUTO 00000KT 10SM SCT048 SCT070 32/21 A2995 RMK AO2 T03230211
K48A 181835Z AUTO 19003KT 10SM SCT046 BKN060 BKN070 31/21 A2995 RMK AO2 T03120206
KCSG 181751Z 26007KT 10SM BKN030 OVC047 31/21 A2995 RMK AO2 SLP135 60000 T03110211 10311 20244 58019
KCSG 181734Z 1818/1918 20006KT P6SM -SHRA FEW020 BKN030 
     TEMPO 1820/1824 4SM TSRA OVC025CB 
     FM190100 20005KT P6SM VCSH BKN050 BKN080 
     FM190700 22006KT P6SM BKN015 
     FM191000 24006KT P6SM BKN007 
     FM191400 26007KT P6SM VCSH BKN015
       
KCKF 181815Z AUTO 22005KT 10SM SCT042 BKN070 31/20 A2997 RMK AO2 LTG DSNT W T03100200
KAJR 181835Z AUTO 18004KT 7SM BKN022 BKN027 BKN033 27/21 A3000 RMK AO2 LTG DSNT S T02650211
KCVC 181835Z AUTO 24003KT 10SM CLR 31/23 A2997 RMK AO2 LTG DSNT N AND NW PNO
KPUJ 181835Z AUTO 00000KT 10SM SCT047 SCT070 SCT090 25/21 A2999 RMK AO2
KDNN 181835Z AUTO 00000KT 10SM BKN022 BKN060 28/22 A2998 RMK AO2 LTG DSNT SE THRU SW
K17J 181815Z AUTO 30007KT 270V360 10SM VCTS BKN039 BKN060 BKN090 31/23 A2995 RMK AO2 LTG DSNT ALQDS T03110230
KDQH 181815Z AUTO 00000KT 10SM SCT041 31/21 A2998 RMK AO2 T03120206
KDBN 181835Z AUTO 00000KT 10SM BKN046 OVC050 31/20 A2997 RMK AO2
KEZM 181815Z AUTO 18006KT 10SM SCT043 BKN060 OVC085 31/21 A2998 RMK AO2 T03110210
K49A 181815Z AUTO 24003KT 4SM +RA SCT013 SCT042 BKN065 25/22 A3004 RMK AO2 T02470218
KFZG 181815Z AUTO 15004KT SCT050 SCT070 32/23 A2999 RMK AO2 T03160228 PWINO
KGVL 181827Z AUTO 19005KT 9SM -TSRA BKN024 BKN028 OVC042 25/24 A3001 RMK AO2 LTG DSNT S AND NW TSB17 P0009 T02500239
K3J7 181835Z AUTO 15003KT 10SM SCT032 SCT070 SCT095 31/22 A2996 RMK AO2
K6A2 181835Z AUTO 21005KT SCT028 BKN048 OVC085 28/21 A2998 RMK AO2 LTG DSNT NE AND SW
KAZE 181815Z AUTO 20003KT 10SM BKN043 BKN060 BKN070 32/20 A2996 RMK AO2 T03150195
KLHW 181756Z 22005KT 10SM BKN050 BKN150 OVC190 32/20 A2995 RMK AO2A SLP145 T03190198 10323 20234 58015 $
KHOE 181810Z AUTO 28004KT 10SM SCT043 SCT050 SCT075 32/21 A2996 RMK AO2
KJZP 181835Z AUTO 00000KT 4SM RA SCT027 BKN047 OVC070 23/22 A3004 RMK AO2 T02290218 PNO
KJES 181821Z AUTO 20004KT 10SM SCT080 33/19 A2997 RMK AO2
K9A5 181815Z AUTO 21003KT 10SM BKN017 BKN037 26/21 A2998 RMK AO2 T02550210
KLGC 181815Z AUTO 23004KT 10SM BKN036 BKN045 BKN080 30/22 A2996 RMK AO2 LTG DSNT NE AND SW T03030219
K2J3 181815Z AUTO 16003KT 10SM CLR 31/21 A2996 RMK AO2 T03120206
KMCN 181753Z 13005KT 10SM FEW040 SCT085 31/21 A2996 RMK AO2 LTG DSNT W SLP139 T03110211 10322 20256 58019
KMCN 181734Z 1818/1918 20006KT P6SM -SHRA SCT030 BKN050 
     TEMPO 1820/1824 4SM TSRA OVC025CB 
     FM190100 20005KT P6SM VCSH BKN050 BKN080 
     FM190700 22006KT P6SM BKN015 
     FM191000 24006KT P6SM BKN007 
     FM191400 26007KT P6SM VCSH BKN015
       
KMLJ 181835Z AUTO 16003KT 10SM SCT034 SCT048 SCT060 30/22 A2996 RMK AO2
K2J5 181835Z AUTO 15003KT 10SM SCT047 SCT060 31/20 A2995 RMK AO2 T03150199
KD73 181815Z AUTO 03005KT 10SM VCTS SCT026 BKN036 BKN042 29/23 A2998 RMK AO2 LTG DSNT NW T02880226
KMGR 181815Z AUTO 00000KT 10SM SCT034 SCT048 SCT070 30/21 A2998 RMK AO2 LTG DSNT W
KPXE 181835Z AUTO 17006KT 10SM SCT040 BKN048 32/22 A2995 RMK AO2 T03190219
KRMG 181808Z AUTO VRB03KT 10SM SCT015 28/22 A2995 RMK AO2 LTG DSNT E AND SE T02780222
KOKZ 181835Z AUTO 18004KT 10SM BKN044 OVC050 27/15 A2996 RMK AO2 T02670146
KSAV 181753Z 08005KT 10SM SCT025 BKN055 BKN250 31/23 A2997 RMK AO2 SLP148 CB DSPTD 60000 T03060228 10317 20256 58013
KSAV 181736Z 1818/1918 30004KT P6SM SCT025 BKN040 
     FM182000 17007KT P6SM VCTS SCT025CB BKN035 
     FM190000 16007KT P6SM SCT040 BKN150 
     FM191400 24007KT P6SM SHRA SCT025 BKN040
       
KTBR 181815Z AUTO 00000KT 10SM SCT050 31/19 A2996 RMK AO2 T03120185
KSBO 181835Z AUTO 00000KT 10SM CLR 32/21 A2996 RMK AO2
KJYL 181835Z AUTO 00000KT 10SM SCT060 33/20 A2996 RMK AO2 T03260202
KOPN 181815Z AUTO 16006KT 10SM BKN030 BKN039 BKN049 29/20 A2999 RMK AO2 LTG DSNT N AND SW
KTVI 181835Z AUTO 19004KT 10SM SCT039 SCT075 30/22 A2997 RMK AO2
KHQU 181835Z AUTO 24006KT 10SM BKN042 BKN050 30/21 A2996 RMK AO2 T03040213
KTMA 181835Z AUTO 21007KT 170V240 10SM SCT037 SCT065 A2996 RMK AO2
KTOC 181815Z AUTO 00000KT 10SM SCT024 SCT032 28/21 A2999 RMK AO2 T02840207
KVLD 181753Z 18003KT 10SM -RA FEW035 BKN047 BKN065 31/23 A2997 RMK AO2 RAB53 SLP156 P0000 60000 T03060233 10317 20228 58015
KVLD 181720Z 1818/1918 23006KT P6SM -RA BKN035 
     FM181900 23006KT 5SM -TSRA SCT030CB BKN060 
     FM190000 23003KT P6SM SCT250 
     FM190900 23003KT P6SM BKN015 
     FM191500 26009KT P6SM VCTS BKN050CB
       
KVDI 181835Z AUTO 20004KT 10SM SCT050 BKN070 31/20 A2996 RMK AO2
KAYS 181835Z AUTO 30006KT 10SM SCT047 SCT070 SCT080 33/15 A2995 RMK AO2 T03340151 TSNO
KWDR 181815Z AUTO 15005KT 10SM TS SCT024 SCT033 BKN065 28/22 A3000 RMK AO2 LTG DSNT E W AND NW